sensor_id;sensor_type;location;lat;lon;timestamp;P1;durP1;ratioP1;P2;durP2;ratioP2
66129;SDS011;52930;51.464;11.764;2023-07-22T00:01:31;11.13;;;6.17;;
66129;SDS011;52930;51.464;11.764;2023-07-22T00:03:57;11.00;;;7.05;;
66129;SDS011;52930;51.464;11.764;2023-07-22T00:06:23;12.10;;;6.70;;
66129;SDS011;52930;51.464;11.764;2023-07-22T00:08:49;14.97;;;6.90;;
66129;SDS011;52930;51.464;11.764;2023-07-22T00:11:15;13.68;;;7.18;;
66129;SDS011;52930;51.464;11.764;2023-07-22T00:13:40;13.20;;;6.77;;
66129;SDS011;52930;51.464;11.764;2023-07-22T00:16:06;9.90;;;6.77;;
66129;SDS011;52930;51.464;11.764;2023-07-22T00:18:33;11.75;;;7.30;;
66129;SDS011;52930;51.464;11.764;2023-07-22T00:20:58;13.60;;;8.20;;
66129;SDS011;52930;51.464;11.764;2023-07-22T00:23:24;11.07;;;7.13;;
66129;SDS011;52930;51.464;11.764;2023-07-22T00:25:49;13.87;;;7.97;;
66129;SDS011;52930;51.464;11.764;2023-07-22T00:28:15;13.23;;;8.10;;
66129;SDS011;52930;51.464;11.764;2023-07-22T00:30:40;17.85;;;8.60;;
66129;SDS011;52930;51.464;11.764;2023-07-22T00:33:06;12.03;;;7.70;;
66129;SDS011;52930;51.464;11.764;2023-07-22T00:35:32;14.10;;;8.00;;
66129;SDS011;52930;51.464;11.764;2023-07-22T00:37:58;11.50;;;7.85;;
66129;SDS011;52930;51.464;11.764;2023-07-22T00:40:24;13.85;;;7.68;;
66129;SDS011;52930;51.464;11.764;2023-07-22T00:42:50;11.90;;;8.00;;
66129;SDS011;52930;51.464;11.764;2023-07-22T00:45:15;14.10;;;8.17;;
66129;SDS011;52930;51.464;11.764;2023-07-22T00:47:41;14.87;;;8.90;;
66129;SDS011;52930;51.464;11.764;2023-07-22T00:50:07;14.55;;;8.07;;
66129;SDS011;52930;51.464;11.764;2023-07-22T00:52:36;12.82;;;8.48;;
66129;SDS011;52930;51.464;11.764;2023-07-22T00:55:03;15.73;;;8.50;;
66129;SDS011;52930;51.464;11.764;2023-07-22T00:57:30;13.40;;;8.55;;
66129;SDS011;52930;51.464;11.764;2023-07-22T00:59:55;14.53;;;8.50;;
66129;SDS011;52930;51.464;11.764;2023-07-22T01:02:21;12.85;;;8.02;;
66129;SDS011;52930;51.464;11.764;2023-07-22T01:04:46;13.20;;;8.17;;
66129;SDS011;52930;51.464;11.764;2023-07-22T01:07:12;16.15;;;9.48;;
66129;SDS011;52930;51.464;11.764;2023-07-22T01:09:38;13.30;;;8.60;;
66129;SDS011;52930;51.464;11.764;2023-07-22T01:12:05;15.40;;;8.95;;
66129;SDS011;52930;51.464;11.764;2023-07-22T01:14:32;14.35;;;8.90;;
66129;SDS011;52930;51.464;11.764;2023-07-22T01:16:58;15.23;;;8.97;;
66129;SDS011;52930;51.464;11.764;2023-07-22T01:19:25;15.05;;;9.32;;
66129;SDS011;52930;51.464;11.764;2023-07-22T01:21:50;14.17;;;9.27;;
66129;SDS011;52930;51.464;11.764;2023-07-22T01:24:16;15.63;;;9.15;;
66129;SDS011;52930;51.464;11.764;2023-07-22T01:26:42;14.27;;;9.07;;
66129;SDS011;52930;51.464;11.764;2023-07-22T01:29:07;15.83;;;9.60;;
66129;SDS011;52930;51.464;11.764;2023-07-22T01:31:35;13.50;;;8.85;;
66129;SDS011;52930;51.464;11.764;2023-07-22T01:34:01;14.45;;;8.63;;
66129;SDS011;52930;51.464;11.764;2023-07-22T01:36:27;16.45;;;9.15;;
66129;SDS011;52930;51.464;11.764;2023-07-22T01:38:52;15.33;;;9.00;;
66129;SDS011;52930;51.464;11.764;2023-07-22T01:41:18;14.10;;;8.70;;
66129;SDS011;52930;51.464;11.764;2023-07-22T01:43:43;13.73;;;8.70;;
66129;SDS011;52930;51.464;11.764;2023-07-22T01:46:09;14.77;;;8.30;;
66129;SDS011;52930;51.464;11.764;2023-07-22T01:48:34;13.93;;;8.10;;
66129;SDS011;52930;51.464;11.764;2023-07-22T01:50:59;14.63;;;8.50;;
66129;SDS011;52930;51.464;11.764;2023-07-22T01:53:25;12.83;;;8.47;;
66129;SDS011;52930;51.464;11.764;2023-07-22T01:55:50;14.50;;;8.33;;
66129;SDS011;52930;51.464;11.764;2023-07-22T01:58:15;13.63;;;8.10;;
66129;SDS011;52930;51.464;11.764;2023-07-22T02:00:41;14.17;;;7.33;;
66129;SDS011;52930;51.464;11.764;2023-07-22T02:03:06;13.60;;;7.43;;
66129;SDS011;52930;51.464;11.764;2023-07-22T02:05:31;11.87;;;6.83;;
66129;SDS011;52930;51.464;11.764;2023-07-22T02:07:57;11.73;;;6.63;;
66129;SDS011;52930;51.464;11.764;2023-07-22T02:10:22;12.90;;;7.17;;
66129;SDS011;52930;51.464;11.764;2023-07-22T02:12:48;12.77;;;6.70;;
66129;SDS011;52930;51.464;11.764;2023-07-22T02:15:13;11.80;;;6.20;;
66129;SDS011;52930;51.464;11.764;2023-07-22T02:17:38;10.63;;;6.40;;
66129;SDS011;52930;51.464;11.764;2023-07-22T02:20:04;9.93;;;6.63;;
66129;SDS011;52930;51.464;11.764;2023-07-22T02:22:30;10.45;;;6.03;;
66129;SDS011;52930;51.464;11.764;2023-07-22T02:24:56;10.77;;;6.13;;
66129;SDS011;52930;51.464;11.764;2023-07-22T02:27:21;11.13;;;6.60;;
66129;SDS011;52930;51.464;11.764;2023-07-22T02:29:46;10.30;;;5.93;;
66129;SDS011;52930;51.464;11.764;2023-07-22T02:32:12;10.63;;;6.40;;
66129;SDS011;52930;51.464;11.764;2023-07-22T02:34:37;11.00;;;6.03;;
66129;SDS011;52930;51.464;11.764;2023-07-22T02:37:03;10.77;;;6.20;;
66129;SDS011;52930;51.464;11.764;2023-07-22T02:39:29;10.10;;;6.18;;
66129;SDS011;52930;51.464;11.764;2023-07-22T02:41:54;10.70;;;6.23;;
66129;SDS011;52930;51.464;11.764;2023-07-22T02:44:19;12.05;;;6.45;;
66129;SDS011;52930;51.464;11.764;2023-07-22T02:46:45;13.48;;;6.30;;
66129;SDS011;52930;51.464;11.764;2023-07-22T02:49:10;12.53;;;6.63;;
66129;SDS011;52930;51.464;11.764;2023-07-22T02:51:36;11.30;;;6.27;;
66129;SDS011;52930;51.464;11.764;2023-07-22T02:54:01;10.43;;;6.23;;
66129;SDS011;52930;51.464;11.764;2023-07-22T02:56:26;11.23;;;6.30;;
66129;SDS011;52930;51.464;11.764;2023-07-22T02:58:52;14.45;;;6.65;;
66129;SDS011;52930;51.464;11.764;2023-07-22T03:01:17;12.43;;;7.40;;
66129;SDS011;52930;51.464;11.764;2023-07-22T03:03:43;13.02;;;7.15;;
66129;SDS011;52930;51.464;11.764;2023-07-22T03:06:09;12.27;;;7.05;;
66129;SDS011;52930;51.464;11.764;2023-07-22T03:08:34;16.23;;;7.60;;
66129;SDS011;52930;51.464;11.764;2023-07-22T03:11:00;13.03;;;7.77;;
66129;SDS011;52930;51.464;11.764;2023-07-22T03:13:25;14.33;;;7.97;;
66129;SDS011;52930;51.464;11.764;2023-07-22T03:15:54;12.45;;;7.90;;
66129;SDS011;52930;51.464;11.764;2023-07-22T03:18:20;13.95;;;8.07;;
66129;SDS011;52930;51.464;11.764;2023-07-22T03:20:45;16.33;;;8.37;;
66129;SDS011;52930;51.464;11.764;2023-07-22T03:23:11;13.57;;;8.27;;
66129;SDS011;52930;51.464;11.764;2023-07-22T03:25:36;14.67;;;8.50;;
66129;SDS011;52930;51.464;11.764;2023-07-22T03:28:02;14.43;;;8.57;;
66129;SDS011;52930;51.464;11.764;2023-07-22T03:30:29;13.68;;;8.60;;
66129;SDS011;52930;51.464;11.764;2023-07-22T03:32:54;17.40;;;8.40;;
66129;SDS011;52930;51.464;11.764;2023-07-22T03:35:20;16.90;;;9.20;;
66129;SDS011;52930;51.464;11.764;2023-07-22T03:37:45;16.40;;;9.77;;
66129;SDS011;52930;51.464;11.764;2023-07-22T03:40:11;16.50;;;9.50;;
66129;SDS011;52930;51.464;11.764;2023-07-22T03:42:39;16.05;;;8.82;;
66129;SDS011;52930;51.464;11.764;2023-07-22T03:45:05;16.47;;;9.43;;
66129;SDS011;52930;51.464;11.764;2023-07-22T03:47:32;15.40;;;8.85;;
66129;SDS011;52930;51.464;11.764;2023-07-22T03:49:57;16.77;;;9.60;;
66129;SDS011;52930;51.464;11.764;2023-07-22T03:52:23;15.50;;;9.07;;
66129;SDS011;52930;51.464;11.764;2023-07-22T03:54:48;16.87;;;9.50;;
66129;SDS011;52930;51.464;11.764;2023-07-22T03:57:13;15.50;;;9.57;;
66129;SDS011;52930;51.464;11.764;2023-07-22T03:59:39;18.33;;;9.80;;
66129;SDS011;52930;51.464;11.764;2023-07-22T04:02:04;16.20;;;9.00;;
66129;SDS011;52930;51.464;11.764;2023-07-22T04:04:30;19.60;;;8.67;;
66129;SDS011;52930;51.464;11.764;2023-07-22T04:06:55;16.27;;;8.77;;
66129;SDS011;52930;51.464;11.764;2023-07-22T04:09:20;15.80;;;8.47;;
66129;SDS011;52930;51.464;11.764;2023-07-22T04:11:46;15.63;;;8.93;;
66129;SDS011;52930;51.464;11.764;2023-07-22T04:14:11;17.85;;;9.00;;
66129;SDS011;52930;51.464;11.764;2023-07-22T04:16:37;14.83;;;8.87;;
66129;SDS011;52930;51.464;11.764;2023-07-22T04:19:03;16.77;;;9.15;;
66129;SDS011;52930;51.464;11.764;2023-07-22T04:21:29;16.80;;;9.10;;
66129;SDS011;52930;51.464;11.764;2023-07-22T04:23:54;16.30;;;9.30;;
66129;SDS011;52930;51.464;11.764;2023-07-22T04:26:19;18.37;;;9.50;;
66129;SDS011;52930;51.464;11.764;2023-07-22T04:28:45;16.23;;;8.82;;
66129;SDS011;52930;51.464;11.764;2023-07-22T04:31:10;16.30;;;8.93;;
66129;SDS011;52930;51.464;11.764;2023-07-22T04:33:36;16.67;;;8.33;;
66129;SDS011;52930;51.464;11.764;2023-07-22T04:36:01;14.00;;;7.83;;
66129;SDS011;52930;51.464;11.764;2023-07-22T04:38:26;13.90;;;8.10;;
66129;SDS011;52930;51.464;11.764;2023-07-22T04:40:53;12.23;;;6.82;;
66129;SDS011;52930;51.464;11.764;2023-07-22T04:43:18;14.47;;;7.00;;
66129;SDS011;52930;51.464;11.764;2023-07-22T04:45:44;14.63;;;7.27;;
66129;SDS011;52930;51.464;11.764;2023-07-22T04:48:12;11.82;;;6.15;;
66129;SDS011;52930;51.464;11.764;2023-07-22T04:50:38;12.57;;;5.93;;
66129;SDS011;52930;51.464;11.764;2023-07-22T04:53:05;10.55;;;6.28;;
66129;SDS011;52930;51.464;11.764;2023-07-22T04:55:32;11.98;;;6.07;;
66129;SDS011;52930;51.464;11.764;2023-07-22T04:57:58;12.85;;;6.50;;
66129;SDS011;52930;51.464;11.764;2023-07-22T05:00:23;13.17;;;5.97;;
66129;SDS011;52930;51.464;11.764;2023-07-22T05:02:48;11.97;;;5.50;;
66129;SDS011;52930;51.464;11.764;2023-07-22T05:05:14;10.90;;;5.20;;
66129;SDS011;52930;51.464;11.764;2023-07-22T05:07:40;11.18;;;5.82;;
66129;SDS011;52930;51.464;11.764;2023-07-22T05:10:06;12.77;;;5.53;;
66129;SDS011;52930;51.464;11.764;2023-07-22T05:12:32;11.55;;;5.60;;
66129;SDS011;52930;51.464;11.764;2023-07-22T05:14:57;14.30;;;6.00;;
66129;SDS011;52930;51.464;11.764;2023-07-22T05:17:23;9.87;;;5.47;;
66129;SDS011;52930;51.464;11.764;2023-07-22T05:19:48;12.20;;;6.13;;
66129;SDS011;52930;51.464;11.764;2023-07-22T05:22:14;10.73;;;5.35;;
66129;SDS011;52930;51.464;11.764;2023-07-22T05:24:39;10.75;;;5.20;;
66129;SDS011;52930;51.464;11.764;2023-07-22T05:27:05;11.27;;;5.57;;
66129;SDS011;52930;51.464;11.764;2023-07-22T05:29:30;10.68;;;5.43;;
66129;SDS011;52930;51.464;11.764;2023-07-22T05:31:55;12.57;;;5.70;;
66129;SDS011;52930;51.464;11.764;2023-07-22T05:34:21;10.30;;;5.37;;
66129;SDS011;52930;51.464;11.764;2023-07-22T05:36:46;11.23;;;5.03;;
66129;SDS011;52930;51.464;11.764;2023-07-22T05:39:11;13.80;;;5.73;;
66129;SDS011;52930;51.464;11.764;2023-07-22T05:41:37;11.13;;;5.00;;
66129;SDS011;52930;51.464;11.764;2023-07-22T05:44:02;10.67;;;4.57;;
66129;SDS011;52930;51.464;11.764;2023-07-22T05:46:28;13.40;;;5.70;;
66129;SDS011;52930;51.464;11.764;2023-07-22T05:48:53;11.32;;;5.75;;
66129;SDS011;52930;51.464;11.764;2023-07-22T05:51:18;9.93;;;5.20;;
66129;SDS011;52930;51.464;11.764;2023-07-22T05:53:44;11.77;;;5.57;;
66129;SDS011;52930;51.464;11.764;2023-07-22T05:56:09;12.07;;;5.40;;
66129;SDS011;52930;51.464;11.764;2023-07-22T05:58:35;13.07;;;5.70;;
66129;SDS011;52930;51.464;11.764;2023-07-22T06:01:00;10.43;;;4.85;;
66129;SDS011;52930;51.464;11.764;2023-07-22T06:03:26;11.03;;;5.60;;
66129;SDS011;52930;51.464;11.764;2023-07-22T06:05:51;13.80;;;5.53;;
66129;SDS011;52930;51.464;11.764;2023-07-22T06:08:16;11.07;;;4.73;;
66129;SDS011;52930;51.464;11.764;2023-07-22T06:10:42;12.20;;;5.23;;
66129;SDS011;52930;51.464;11.764;2023-07-22T06:13:07;13.30;;;6.10;;
66129;SDS011;52930;51.464;11.764;2023-07-22T06:15:33;10.97;;;4.80;;
66129;SDS011;52930;51.464;11.764;2023-07-22T06:17:58;9.93;;;5.10;;
66129;SDS011;52930;51.464;11.764;2023-07-22T06:20:25;11.15;;;5.07;;
66129;SDS011;52930;51.464;11.764;2023-07-22T06:22:50;13.65;;;5.50;;
66129;SDS011;52930;51.464;11.764;2023-07-22T06:25:15;13.77;;;5.13;;
66129;SDS011;52930;51.464;11.764;2023-07-22T06:27:41;10.97;;;5.20;;
66129;SDS011;52930;51.464;11.764;2023-07-22T06:30:06;10.10;;;4.20;;
66129;SDS011;52930;51.464;11.764;2023-07-22T06:32:33;10.25;;;4.40;;
66129;SDS011;52930;51.464;11.764;2023-07-22T06:35:00;13.07;;;4.47;;
66129;SDS011;52930;51.464;11.764;2023-07-22T06:37:25;11.27;;;4.37;;
66129;SDS011;52930;51.464;11.764;2023-07-22T06:39:51;9.10;;;3.73;;
66129;SDS011;52930;51.464;11.764;2023-07-22T06:42:16;11.02;;;3.90;;
66129;SDS011;52930;51.464;11.764;2023-07-22T06:44:42;7.57;;;3.50;;
66129;SDS011;52930;51.464;11.764;2023-07-22T06:47:08;9.10;;;3.90;;
66129;SDS011;52930;51.464;11.764;2023-07-22T06:49:33;9.73;;;4.10;;
66129;SDS011;52930;51.464;11.764;2023-07-22T06:51:58;12.00;;;3.97;;
66129;SDS011;52930;51.464;11.764;2023-07-22T06:54:24;8.00;;;3.43;;
66129;SDS011;52930;51.464;11.764;2023-07-22T06:56:49;7.47;;;3.50;;
66129;SDS011;52930;51.464;11.764;2023-07-22T06:59:14;10.87;;;3.77;;
66129;SDS011;52930;51.464;11.764;2023-07-22T07:01:40;9.77;;;3.60;;
66129;SDS011;52930;51.464;11.764;2023-07-22T07:04:06;7.07;;;2.97;;
66129;SDS011;52930;51.464;11.764;2023-07-22T07:06:31;10.50;;;3.77;;
66129;SDS011;52930;51.464;11.764;2023-07-22T07:08:58;7.50;;;3.53;;
66129;SDS011;52930;51.464;11.764;2023-07-22T07:11:25;9.25;;;3.65;;
66129;SDS011;52930;51.464;11.764;2023-07-22T07:13:50;10.03;;;3.67;;
66129;SDS011;52930;51.464;11.764;2023-07-22T07:16:19;8.60;;;3.53;;
66129;SDS011;52930;51.464;11.764;2023-07-22T07:18:56;8.00;;;3.60;;
66129;SDS011;52930;51.464;11.764;2023-07-22T07:21:21;6.67;;;3.03;;
66129;SDS011;52930;51.464;11.764;2023-07-22T07:23:47;9.73;;;3.57;;
66129;SDS011;52930;51.464;11.764;2023-07-22T07:26:13;7.72;;;3.40;;
66129;SDS011;52930;51.464;11.764;2023-07-22T07:28:39;8.98;;;3.38;;
66129;SDS011;52930;51.464;11.764;2023-07-22T07:31:04;8.20;;;3.20;;
66129;SDS011;52930;51.464;11.764;2023-07-22T07:33:30;6.60;;;2.70;;
66129;SDS011;52930;51.464;11.764;2023-07-22T07:35:55;6.78;;;3.13;;
66129;SDS011;52930;51.464;11.764;2023-07-22T07:38:21;8.33;;;3.13;;
66129;SDS011;52930;51.464;11.764;2023-07-22T07:40:46;7.67;;;3.00;;
66129;SDS011;52930;51.464;11.764;2023-07-22T07:43:17;6.15;;;2.80;;
66129;SDS011;52930;51.464;11.764;2023-07-22T07:45:42;7.37;;;2.70;;
66129;SDS011;52930;51.464;11.764;2023-07-22T07:48:08;10.67;;;3.60;;
66129;SDS011;52930;51.464;11.764;2023-07-22T07:50:33;9.23;;;2.70;;
66129;SDS011;52930;51.464;11.764;2023-07-22T07:52:58;8.07;;;3.60;;
66129;SDS011;52930;51.464;11.764;2023-07-22T07:55:24;7.45;;;3.20;;
66129;SDS011;52930;51.464;11.764;2023-07-22T07:57:50;9.67;;;3.30;;
66129;SDS011;52930;51.464;11.764;2023-07-22T08:00:16;7.65;;;3.17;;
66129;SDS011;52930;51.464;11.764;2023-07-22T08:02:41;8.10;;;2.90;;
66129;SDS011;52930;51.464;11.764;2023-07-22T08:05:07;8.10;;;2.43;;
66129;SDS011;52930;51.464;11.764;2023-07-22T08:07:32;8.02;;;2.97;;
66129;SDS011;52930;51.464;11.764;2023-07-22T08:09:58;9.90;;;2.97;;
66129;SDS011;52930;51.464;11.764;2023-07-22T08:12:24;8.07;;;3.42;;
66129;SDS011;52930;51.464;11.764;2023-07-22T08:14:49;5.97;;;2.67;;
66129;SDS011;52930;51.464;11.764;2023-07-22T08:17:15;8.57;;;3.50;;
66129;SDS011;52930;51.464;11.764;2023-07-22T08:19:40;6.40;;;3.10;;
66129;SDS011;52930;51.464;11.764;2023-07-22T08:22:05;8.10;;;3.17;;
66129;SDS011;52930;51.464;11.764;2023-07-22T08:24:31;8.27;;;3.60;;
66129;SDS011;52930;51.464;11.764;2023-07-22T08:26:57;7.68;;;2.88;;
66129;SDS011;52930;51.464;11.764;2023-07-22T08:29:23;7.57;;;3.35;;
66129;SDS011;52930;51.464;11.764;2023-07-22T08:31:50;13.85;;;4.13;;
66129;SDS011;52930;51.464;11.764;2023-07-22T08:34:16;7.87;;;3.57;;
66129;SDS011;52930;51.464;11.764;2023-07-22T08:36:46;7.35;;;3.33;;
66129;SDS011;52930;51.464;11.764;2023-07-22T08:39:11;6.73;;;2.67;;
66129;SDS011;52930;51.464;11.764;2023-07-22T08:41:37;8.77;;;3.08;;
66129;SDS011;52930;51.464;11.764;2023-07-22T08:44:04;8.43;;;2.53;;
66129;SDS011;52930;51.464;11.764;2023-07-22T08:46:29;7.15;;;2.80;;
66129;SDS011;52930;51.464;11.764;2023-07-22T08:48:59;8.27;;;3.10;;
66129;SDS011;52930;51.464;11.764;2023-07-22T08:51:25;8.55;;;3.55;;
66129;SDS011;52930;51.464;11.764;2023-07-22T08:53:53;9.13;;;3.77;;
66129;SDS011;52930;51.464;11.764;2023-07-22T08:56:22;10.45;;;3.50;;
66129;SDS011;52930;51.464;11.764;2023-07-22T08:58:49;6.97;;;3.03;;
66129;SDS011;52930;51.464;11.764;2023-07-22T09:01:15;10.88;;;3.17;;
66129;SDS011;52930;51.464;11.764;2023-07-22T09:03:41;8.33;;;3.27;;
66129;SDS011;52930;51.464;11.764;2023-07-22T09:06:06;8.60;;;3.20;;
66129;SDS011;52930;51.464;11.764;2023-07-22T09:08:33;8.18;;;3.08;;
66129;SDS011;52930;51.464;11.764;2023-07-22T09:10:58;5.90;;;2.60;;
66129;SDS011;52930;51.464;11.764;2023-07-22T09:13:24;8.02;;;3.03;;
66129;SDS011;52930;51.464;11.764;2023-07-22T09:15:51;8.77;;;3.50;;
66129;SDS011;52930;51.464;11.764;2023-07-22T09:18:16;7.27;;;3.07;;
66129;SDS011;52930;51.464;11.764;2023-07-22T09:20:42;6.93;;;3.50;;
66129;SDS011;52930;51.464;11.764;2023-07-22T09:23:07;8.70;;;3.50;;
66129;SDS011;52930;51.464;11.764;2023-07-22T09:25:33;7.30;;;3.00;;
66129;SDS011;52930;51.464;11.764;2023-07-22T09:27:58;8.30;;;3.20;;
66129;SDS011;52930;51.464;11.764;2023-07-22T09:30:29;6.15;;;2.70;;
66129;SDS011;52930;51.464;11.764;2023-07-22T09:32:58;7.88;;;2.60;;
66129;SDS011;52930;51.464;11.764;2023-07-22T09:35:31;7.43;;;3.17;;
66129;SDS011;52930;51.464;11.764;2023-07-22T09:38:06;5.95;;;1.85;;
66129;SDS011;52930;51.464;11.764;2023-07-22T09:40:31;7.22;;;3.08;;
66129;SDS011;52930;51.464;11.764;2023-07-22T09:42:57;7.53;;;4.10;;
66129;SDS011;52930;51.464;11.764;2023-07-22T09:45:30;6.70;;;3.37;;
66129;SDS011;52930;51.464;11.764;2023-07-22T09:47:56;8.32;;;3.15;;
66129;SDS011;52930;51.464;11.764;2023-07-22T09:50:23;7.32;;;3.20;;
66129;SDS011;52930;51.464;11.764;2023-07-22T09:52:52;6.10;;;3.05;;
66129;SDS011;52930;51.464;11.764;2023-07-22T09:55:19;6.57;;;3.20;;
66129;SDS011;52930;51.464;11.764;2023-07-22T09:57:49;8.77;;;2.73;;
66129;SDS011;52930;51.464;11.764;2023-07-22T10:00:15;6.60;;;3.08;;
66129;SDS011;52930;51.464;11.764;2023-07-22T10:02:44;7.05;;;3.13;;
66129;SDS011;52930;51.464;11.764;2023-07-22T10:05:14;8.45;;;4.28;;
66129;SDS011;52930;51.464;11.764;2023-07-22T10:08:14;6.47;;;3.55;;
66129;SDS011;52930;51.464;11.764;2023-07-22T10:13:07;6.22;;;3.10;;
66129;SDS011;52930;51.464;11.764;2023-07-22T10:15:34;6.53;;;3.17;;
66129;SDS011;52930;51.464;11.764;2023-07-22T10:18:00;6.82;;;2.70;;
66129;SDS011;52930;51.464;11.764;2023-07-22T10:20:26;6.57;;;3.30;;
66129;SDS011;52930;51.464;11.764;2023-07-22T10:22:51;6.57;;;2.80;;
66129;SDS011;52930;51.464;11.764;2023-07-22T10:25:18;9.57;;;3.40;;
66129;SDS011;52930;51.464;11.764;2023-07-22T10:27:44;6.13;;;2.70;;
66129;SDS011;52930;51.464;11.764;2023-07-22T10:30:14;8.70;;;2.85;;
66129;SDS011;52930;51.464;11.764;2023-07-22T10:32:41;8.55;;;2.50;;
66129;SDS011;52930;51.464;11.764;2023-07-22T10:35:12;8.30;;;3.10;;
66129;SDS011;52930;51.464;11.764;2023-07-22T10:37:46;5.43;;;2.73;;
66129;SDS011;52930;51.464;11.764;2023-07-22T10:42:58;9.82;;;2.58;;
66129;SDS011;52930;51.464;11.764;2023-07-22T10:45:32;5.88;;;2.53;;
66129;SDS011;52930;51.464;11.764;2023-07-22T10:48:11;6.45;;;3.30;;
66129;SDS011;52930;51.464;11.764;2023-07-22T10:50:41;6.40;;;2.60;;
66129;SDS011;52930;51.464;11.764;2023-07-22T10:53:20;6.72;;;2.88;;
66129;SDS011;52930;51.464;11.764;2023-07-22T11:06:38;5.85;;;2.80;;
66129;SDS011;52930;51.464;11.764;2023-07-22T11:09:05;5.95;;;3.00;;
66129;SDS011;52930;51.464;11.764;2023-07-22T11:11:44;5.80;;;2.50;;
66129;SDS011;52930;51.464;11.764;2023-07-22T11:14:14;8.30;;;3.00;;
66129;SDS011;52930;51.464;11.764;2023-07-22T11:16:41;7.72;;;3.00;;
66129;SDS011;52930;51.464;11.764;2023-07-22T11:19:08;6.93;;;3.03;;
66129;SDS011;52930;51.464;11.764;2023-07-22T11:21:33;5.57;;;3.20;;
66129;SDS011;52930;51.464;11.764;2023-07-22T11:23:58;6.70;;;3.33;;
66129;SDS011;52930;51.464;11.764;2023-07-22T11:26:24;6.00;;;2.70;;
66129;SDS011;52930;51.464;11.764;2023-07-22T11:28:49;6.73;;;2.87;;
66129;SDS011;52930;51.464;11.764;2023-07-22T11:31:14;10.27;;;2.75;;
66129;SDS011;52930;51.464;11.764;2023-07-22T11:33:40;8.30;;;2.50;;
66129;SDS011;52930;51.464;11.764;2023-07-22T11:36:08;6.45;;;2.50;;
66129;SDS011;52930;51.464;11.764;2023-07-22T11:38:34;6.60;;;2.80;;
66129;SDS011;52930;51.464;11.764;2023-07-22T11:40:59;6.43;;;2.63;;
66129;SDS011;52930;51.464;11.764;2023-07-22T11:43:25;7.33;;;2.97;;
66129;SDS011;52930;51.464;11.764;2023-07-22T11:45:50;6.53;;;2.77;;
66129;SDS011;52930;51.464;11.764;2023-07-22T11:48:16;7.90;;;3.10;;
66129;SDS011;52930;51.464;11.764;2023-07-22T11:50:42;7.50;;;3.10;;
66129;SDS011;52930;51.464;11.764;2023-07-22T11:53:07;7.57;;;3.00;;
66129;SDS011;52930;51.464;11.764;2023-07-22T11:55:34;8.00;;;3.03;;
66129;SDS011;52930;51.464;11.764;2023-07-22T11:58:01;8.05;;;3.30;;
66129;SDS011;52930;51.464;11.764;2023-07-22T12:00:26;6.43;;;2.73;;
66129;SDS011;52930;51.464;11.764;2023-07-22T12:02:51;7.43;;;3.30;;
66129;SDS011;52930;51.464;11.764;2023-07-22T12:05:22;6.78;;;3.20;;
66129;SDS011;52930;51.464;11.764;2023-07-22T12:07:47;9.13;;;2.90;;
66129;SDS011;52930;51.464;11.764;2023-07-22T12:10:12;7.23;;;2.90;;
66129;SDS011;52930;51.464;11.764;2023-07-22T12:12:45;7.23;;;3.00;;
66129;SDS011;52930;51.464;11.764;2023-07-22T12:15:21;7.07;;;3.50;;
66129;SDS011;52930;51.464;11.764;2023-07-22T12:20:12;9.87;;;3.40;;
66129;SDS011;52930;51.464;11.764;2023-07-22T12:22:38;7.65;;;3.20;;
66129;SDS011;52930;51.464;11.764;2023-07-22T12:25:04;6.73;;;3.63;;
66129;SDS011;52930;51.464;11.764;2023-07-22T12:27:30;7.50;;;2.85;;
66129;SDS011;52930;51.464;11.764;2023-07-22T12:29:56;7.50;;;3.03;;
66129;SDS011;52930;51.464;11.764;2023-07-22T12:32:21;7.53;;;3.50;;
66129;SDS011;52930;51.464;11.764;2023-07-22T12:34:46;10.00;;;3.40;;
66129;SDS011;52930;51.464;11.764;2023-07-22T12:37:12;7.90;;;3.60;;
66129;SDS011;52930;51.464;11.764;2023-07-22T12:39:37;7.43;;;3.80;;
66129;SDS011;52930;51.464;11.764;2023-07-22T12:42:02;7.43;;;3.13;;
66129;SDS011;52930;51.464;11.764;2023-07-22T12:44:28;7.63;;;3.38;;
66129;SDS011;52930;51.464;11.764;2023-07-22T12:46:53;6.60;;;3.27;;
66129;SDS011;52930;51.464;11.764;2023-07-22T12:49:19;6.47;;;3.20;;
66129;SDS011;52930;51.464;11.764;2023-07-22T12:51:44;7.17;;;3.27;;
66129;SDS011;52930;51.464;11.764;2023-07-22T12:54:09;9.23;;;3.17;;
66129;SDS011;52930;51.464;11.764;2023-07-22T12:56:35;7.10;;;3.27;;
66129;SDS011;52930;51.464;11.764;2023-07-22T12:59:00;7.97;;;3.00;;
66129;SDS011;52930;51.464;11.764;2023-07-22T13:01:26;6.77;;;2.83;;
66129;SDS011;52930;51.464;11.764;2023-07-22T13:03:51;7.33;;;3.17;;
66129;SDS011;52930;51.464;11.764;2023-07-22T13:06:16;5.90;;;3.00;;
66129;SDS011;52930;51.464;11.764;2023-07-22T13:08:42;8.30;;;3.20;;
66129;SDS011;52930;51.464;11.764;2023-07-22T13:11:07;6.57;;;3.23;;
66129;SDS011;52930;51.464;11.764;2023-07-22T13:13:32;7.70;;;3.47;;
66129;SDS011;52930;51.464;11.764;2023-07-22T13:15:58;10.03;;;3.30;;
66129;SDS011;52930;51.464;11.764;2023-07-22T13:18:23;9.40;;;3.20;;
66129;SDS011;52930;51.464;11.764;2023-07-22T13:20:48;6.23;;;2.20;;
66129;SDS011;52930;51.464;11.764;2023-07-22T13:23:14;7.13;;;2.80;;
66129;SDS011;52930;51.464;11.764;2023-07-22T13:25:39;5.60;;;2.57;;
66129;SDS011;52930;51.464;11.764;2023-07-22T13:28:05;6.03;;;2.83;;
66129;SDS011;52930;51.464;11.764;2023-07-22T13:30:30;6.55;;;3.08;;
66129;SDS011;52930;51.464;11.764;2023-07-22T13:32:55;7.47;;;3.60;;
66129;SDS011;52930;51.464;11.764;2023-07-22T13:35:21;7.13;;;3.03;;
66129;SDS011;52930;51.464;11.764;2023-07-22T13:37:47;6.25;;;2.97;;
66129;SDS011;52930;51.464;11.764;2023-07-22T13:40:12;6.90;;;3.57;;
66129;SDS011;52930;51.464;11.764;2023-07-22T13:42:38;6.13;;;2.75;;
66129;SDS011;52930;51.464;11.764;2023-07-22T13:45:04;6.60;;;3.07;;
66129;SDS011;52930;51.464;11.764;2023-07-22T13:47:30;6.32;;;2.75;;
66129;SDS011;52930;51.464;11.764;2023-07-22T13:49:55;6.47;;;2.90;;
66129;SDS011;52930;51.464;11.764;2023-07-22T13:52:20;6.37;;;3.20;;
66129;SDS011;52930;51.464;11.764;2023-07-22T13:54:46;6.97;;;2.80;;
66129;SDS011;52930;51.464;11.764;2023-07-22T13:57:12;5.83;;;2.90;;
66129;SDS011;52930;51.464;11.764;2023-07-22T13:59:37;7.85;;;2.63;;
66129;SDS011;52930;51.464;11.764;2023-07-22T14:02:02;6.20;;;2.57;;
66129;SDS011;52930;51.464;11.764;2023-07-22T14:04:28;9.95;;;2.95;;
66129;SDS011;52930;51.464;11.764;2023-07-22T14:06:54;6.33;;;2.50;;
66129;SDS011;52930;51.464;11.764;2023-07-22T14:09:19;6.10;;;2.70;;
66129;SDS011;52930;51.464;11.764;2023-07-22T14:11:44;6.90;;;3.00;;
66129;SDS011;52930;51.464;11.764;2023-07-22T14:14:10;8.98;;;3.30;;
66129;SDS011;52930;51.464;11.764;2023-07-22T14:16:35;7.30;;;2.77;;
66129;SDS011;52930;51.464;11.764;2023-07-22T14:19:00;6.00;;;2.70;;
66129;SDS011;52930;51.464;11.764;2023-07-22T14:21:26;7.97;;;3.13;;
66129;SDS011;52930;51.464;11.764;2023-07-22T14:23:51;5.90;;;2.87;;
66129;SDS011;52930;51.464;11.764;2023-07-22T14:26:16;5.93;;;2.80;;
66129;SDS011;52930;51.464;11.764;2023-07-22T14:28:42;6.50;;;3.00;;
66129;SDS011;52930;51.464;11.764;2023-07-22T14:31:07;6.47;;;3.17;;
66129;SDS011;52930;51.464;11.764;2023-07-22T14:33:32;6.03;;;2.90;;
66129;SDS011;52930;51.464;11.764;2023-07-22T14:35:58;5.10;;;2.70;;
66129;SDS011;52930;51.464;11.764;2023-07-22T14:38:23;8.17;;;2.60;;
66129;SDS011;52930;51.464;11.764;2023-07-22T14:40:48;6.60;;;2.97;;